Главная страница
METAR-TAF:

METAR-TAF

Аэропорты :

Danbury Municipal Airport

Danbury, Коннектикут, США

широта: 41-22-18N, долгота: 073-29-04W, высота над уровнем моря: 139 м

Текущие метеонаблюдения

Эта сводка был подготовлена 56 минут назад, в 11:53 UTC
Штиль
Температура -11°C
Влажность 85%
Давление 1034 hPa
Видимость: 16.1 км
ясное небо

METAR: KDXR 081153Z 00000KT 10SM CLR M11/M13 A3053 RMK AO2 SLP345 I1000 I6000 T11111128 11078 21111 51008

Время: 07:49 (12:49 UTC)


TAF: отсутствует

Метеонаблюдения и прогнозы для более 4000 аэропортов (сводки METAR и TAF).

Имеющиеся станции представлены на карте желтыми и красными точками.

Чтобы увидеть название станции, наведите на нее мышь.

Затем щелкните, чтобы увидеть метеонаблюдения и метеопрогнозы.

Управление картой: чтобы увеличить масштаб, щелкните зеленые кнопки с черным крестиком; чтобы уменьшить масштаб, щелкните зеленую кнопку с тире; для просмотра соседних карт щелкайте зеленые стрелки.


METAR-TAF: